Nearby METAR Reports

 

KHCR - Heber/Russ Mcdon, Utah, USA
Distance from station: SSW 18mi, 29km
Updated: Sun, 13-Oct-2019 7:10pm MDT
Clear
Clear
 Wind from SSW
Wind: SSW 6 mph , 9 km/h
Temperature: 54°F , 12°C
Dew Point: -0°F , -18°C
Humidity: 11%
Barometer: 29.96 inHg , 1014.6 hPa
Clouds: Clear
Visibility: 10 miles , 16 km
2019/10/14 01:10 KHCR 140110Z AUTO 20005KT 10SM CLR 12/M18 A2996 RMK AO2
KSLC - Salt Lake City, Utah, USA
Distance from station: W 35mi, 57km
Updated: Sun, 13-Oct-2019 6:54pm MDT
Mostly cloudy
Mostly cloudy
 Wind from W
Wind: W 8 mph , 13 km/h
Temperature: 55°F , 13°C
Dew Point: 30°F , -1°C
Humidity: 38%
Barometer: 29.93 inHg , 1013.5 hPa
Clouds: Mostly cloudy
Visibility: 10 miles , 16 km
Cloud details: Few Clouds 15000 ft
Partly cloudy 20000 ft
Mostly cloudy 25000 ft
2019/10/14 00:54 KSLC 140054Z 28007KT 10SM FEW150 SCT200 BKN250 13/M01 A2993 RMK AO2 SLP122 ACSL DSNT W T01281006 $
 
KU42 - Salt Lake Muni, Utah, USA
Distance from station: WSW 37mi, 59km
Updated: Sun, 13-Oct-2019 7:15pm MDT
Clear
Clear
 Wind from WNW
Wind: WNW 5 mph , 7 km/h
Temperature: 54°F , 12°C
Dew Point: 30°F , -1°C
Humidity: 41%
Barometer: 29.94 inHg , 1013.9 hPa
Clouds: Clear
Visibility: 10 miles , 16 km
2019/10/14 01:15 KU42 140115Z AUTO 29004KT 10SM CLR 12/M01 A2994 RMK AO1 T01161007
KEVW - Evanston, Wyoming, USA
Distance from station: NNE 40mi, 64km
Updated: Sun, 13-Oct-2019 6:53pm MDT
Clear
Clear
 Wind from W
Wind: W 13 mph , 20 km/h
Temperature: 50°F , 10°C
Wind Chill: 45°F , 7°C
Dew Point: -0°F , -18°C
Humidity: 12%
Barometer: 30.02 inHg , 1016.6 hPa
Clouds: Clear
Visibility: 10 miles , 16 km
2019/10/14 00:53 KEVW 140053Z AUTO 26011KT 10SM CLR 10/M18 A3002 RMK AO2 SLP137 T01001178
 
KPVU - Provo Muni, Utah, USA
Distance from station: SSW 41mi, 67km
Updated: Sun, 13-Oct-2019 6:56pm MDT
Clear
Clear
 Wind from W
Wind: W 3 mph , 6 km/h
Temperature: 54°F , 12°C
Dew Point: 34°F , 1°C
Humidity: 47%
Barometer: 29.94 inHg , 1013.9 hPa
Clouds: Clear
Visibility: 10 miles , 16 km
2019/10/14 00:56 KPVU 140056Z 26003KT 10SM CLR 12/01 A2994 RMK AO2 SLP138 T01170011
KHIF - Hill Afb/Ogden, Utah, USA
Distance from station: NW 45mi, 72km
Updated: Sun, 13-Oct-2019 3:58pm MDT
NOT Current
Clear
Clear
 Wind from calm
Wind: Calm
Temperature: 63°F , 17°C
Dew Point: 7°F , -14°C
Humidity: 11%
Barometer: 29.95 inHg , 1014.2 hPa
Clouds: Clear
Visibility: 10 miles , 16 km
2019/10/13 21:58 KHIF 132158Z AUTO 00000KT 10SM CLR 17/M14 A2995 RMK AO2 SLP117 T01711136
 
KOGD - Ogden, Utah, USA
Distance from station: NW 50mi, 81km
Updated: Sun, 13-Oct-2019 6:53pm MDT
Clear
Clear
 Wind from NNW
Wind: NNW 6 mph , 9 km/h
Temperature: 52°F , 11°C
Dew Point: 21°F , -6°C
Humidity: 30%
Barometer: 29.92 inHg , 1013.2 hPa
Clouds: Clear
Visibility: 10 miles , 16 km
2019/10/14 00:53 KOGD 140053Z 34005KT 10SM CLR 11/M06 A2992 RMK AO2 SLP123 T01111061